sensor_id;sensor_type;location;lat;lon;timestamp;pressure;altitude;pressure_sealevel;temperature
73894;BMP280;62699;50.534;12.784;2023-04-03T00:04:55;97147.41;;;1.98
73894;BMP280;62699;50.534;12.784;2023-04-03T00:09:56;97143.66;;;1.95
73894;BMP280;62699;50.534;12.784;2023-04-03T00:14:56;97143.25;;;1.97
73894;BMP280;62699;50.534;12.784;2023-04-03T00:19:56;97146.66;;;1.97
73894;BMP280;62699;50.534;12.784;2023-04-03T00:24:56;97140.00;;;1.89
73894;BMP280;62699;50.534;12.784;2023-04-03T00:29:57;97145.72;;;1.87
73894;BMP280;62699;50.534;12.784;2023-04-03T00:34:57;97142.75;;;1.85
73894;BMP280;62699;50.534;12.784;2023-04-03T00:39:58;97159.16;;;1.80
73894;BMP280;62699;50.534;12.784;2023-04-03T00:50:00;97147.59;;;1.71
73894;BMP280;62699;50.534;12.784;2023-04-03T00:55:06;97153.72;;;1.68
73894;BMP280;62699;50.534;12.784;2023-04-03T01:00:29;97160.22;;;1.63
73894;BMP280;62699;50.534;12.784;2023-04-03T01:05:29;97153.50;;;1.59
73894;BMP280;62699;50.534;12.784;2023-04-03T01:10:29;97161.44;;;1.59
73894;BMP280;62699;50.534;12.784;2023-04-03T01:15:30;97162.59;;;1.58
73894;BMP280;62699;50.534;12.784;2023-04-03T01:25:50;97161.63;;;1.48
73894;BMP280;62699;50.534;12.784;2023-04-03T01:36:20;97168.56;;;1.42
73894;BMP280;62699;50.534;12.784;2023-04-03T01:41:22;97173.97;;;1.35
73894;BMP280;62699;50.534;12.784;2023-04-03T01:46:23;97170.69;;;1.31
73894;BMP280;62699;50.534;12.784;2023-04-03T01:51:23;97165.81;;;1.26
73894;BMP280;62699;50.534;12.784;2023-04-03T01:56:24;97173.91;;;1.19
73894;BMP280;62699;50.534;12.784;2023-04-03T02:01:25;97173.91;;;1.19
73894;BMP280;62699;50.534;12.784;2023-04-03T02:06:26;97170.69;;;1.07
73894;BMP280;62699;50.534;12.784;2023-04-03T02:11:26;97166.56;;;1.03
73894;BMP280;62699;50.534;12.784;2023-04-03T02:16:27;97176.03;;;1.04
73894;BMP280;62699;50.534;12.784;2023-04-03T02:21:30;97173.09;;;0.98
73894;BMP280;62699;50.534;12.784;2023-04-03T02:26:30;97171.28;;;0.92
73894;BMP280;62699;50.534;12.784;2023-04-03T02:31:31;97173.94;;;0.92
73894;BMP280;62699;50.534;12.784;2023-04-03T02:36:31;97176.66;;;0.88
73894;BMP280;62699;50.534;12.784;2023-04-03T02:41:32;97181.25;;;0.84
73894;BMP280;62699;50.534;12.784;2023-04-03T02:46:36;97183.13;;;0.84
73894;BMP280;62699;50.534;12.784;2023-04-03T02:51:37;97180.88;;;0.82
73894;BMP280;62699;50.534;12.784;2023-04-03T02:56:37;97183.53;;;0.82
73894;BMP280;62699;50.534;12.784;2023-04-03T03:01:39;97194.97;;;0.79
73894;BMP280;62699;50.534;12.784;2023-04-03T03:06:40;97200.66;;;0.78
73894;BMP280;62699;50.534;12.784;2023-04-03T03:11:40;97198.03;;;0.74
73894;BMP280;62699;50.534;12.784;2023-04-03T03:16:40;97208.75;;;0.67
73894;BMP280;62699;50.534;12.784;2023-04-03T03:21:41;97205.38;;;0.63
73894;BMP280;62699;50.534;12.784;2023-04-03T03:26:42;97208.78;;;0.63
73894;BMP280;62699;50.534;12.784;2023-04-03T03:31:42;97211.19;;;0.54
73894;BMP280;62699;50.534;12.784;2023-04-03T03:36:42;97201.78;;;0.50
73894;BMP280;62699;50.534;12.784;2023-04-03T03:41:43;97211.19;;;0.54
73894;BMP280;62699;50.534;12.784;2023-04-03T03:46:43;97202.59;;;0.47
73894;BMP280;62699;50.534;12.784;2023-04-03T03:51:44;97207.53;;;0.45
73894;BMP280;62699;50.534;12.784;2023-04-03T03:56:45;97200.38;;;0.42
73894;BMP280;62699;50.534;12.784;2023-04-03T04:01:46;97210.28;;;0.37
73894;BMP280;62699;50.534;12.784;2023-04-03T04:06:46;97220.91;;;0.34
73894;BMP280;62699;50.534;12.784;2023-04-03T04:11:46;97232.78;;;0.22
73894;BMP280;62699;50.534;12.784;2023-04-03T04:16:47;97226.41;;;0.20
73894;BMP280;62699;50.534;12.784;2023-04-03T04:21:47;97223.00;;;0.19
73894;BMP280;62699;50.534;12.784;2023-04-03T04:26:48;97234.84;;;0.08
73894;BMP280;62699;50.534;12.784;2023-04-03T04:31:48;97246.31;;;-0.06
73894;BMP280;62699;50.534;12.784;2023-04-03T04:36:48;97238.88;;;-0.18
73894;BMP280;62699;50.534;12.784;2023-04-03T04:41:49;97246.44;;;-0.17
73894;BMP280;62699;50.534;12.784;2023-04-03T04:46:49;97253.22;;;-0.16
73894;BMP280;62699;50.534;12.784;2023-04-03T04:51:51;97256.25;;;-0.17
73894;BMP280;62699;50.534;12.784;2023-04-03T04:56:52;97251.69;;;-0.13
73894;BMP280;62699;50.534;12.784;2023-04-03T05:01:52;97265.31;;;-0.15
73894;BMP280;62699;50.534;12.784;2023-04-03T05:06:52;97270.22;;;-0.13
73894;BMP280;62699;50.534;12.784;2023-04-03T05:11:53;97273.66;;;-0.20
73894;BMP280;62699;50.534;12.784;2023-04-03T05:16:54;97271.84;;;-0.26
73894;BMP280;62699;50.534;12.784;2023-04-03T05:21:55;97276.03;;;-0.29
73894;BMP280;62699;50.534;12.784;2023-04-03T05:26:56;97282.72;;;-0.17
73894;BMP280;62699;50.534;12.784;2023-04-03T05:31:56;97287.81;;;0.04
73894;BMP280;62699;50.534;12.784;2023-04-03T05:36:57;97281.09;;;-0.01
73894;BMP280;62699;50.534;12.784;2023-04-03T05:41:58;97289.97;;;-0.21
73894;BMP280;62699;50.534;12.784;2023-04-03T05:46:58;97293.38;;;-0.21
73894;BMP280;62699;50.534;12.784;2023-04-03T05:51:59;97295.56;;;-0.12
73894;BMP280;62699;50.534;12.784;2023-04-03T05:56:59;97308.22;;;0.07
73894;BMP280;62699;50.534;12.784;2023-04-03T06:01:59;97312.00;;;0.10
73894;BMP280;62699;50.534;12.784;2023-04-03T06:07:01;97313.34;;;0.25
73894;BMP280;62699;50.534;12.784;2023-04-03T06:12:02;97316.94;;;1.02
73894;BMP280;62699;50.534;12.784;2023-04-03T06:17:03;97327.13;;;3.19
73894;BMP280;62699;50.534;12.784;2023-04-03T06:22:05;97323.97;;;3.40
73894;BMP280;62699;50.534;12.784;2023-04-03T06:27:05;97325.81;;;2.55
73894;BMP280;62699;50.534;12.784;2023-04-03T06:32:07;97335.34;;;3.73
73894;BMP280;62699;50.534;12.784;2023-04-03T06:37:15;97346.50;;;3.20
73894;BMP280;62699;50.534;12.784;2023-04-03T06:42:15;97351.00;;;2.67
73894;BMP280;62699;50.534;12.784;2023-04-03T06:47:16;97352.09;;;2.30
73894;BMP280;62699;50.534;12.784;2023-04-03T06:52:16;97356.78;;;1.29
73894;BMP280;62699;50.534;12.784;2023-04-03T06:57:17;97361.97;;;1.09
73894;BMP280;62699;50.534;12.784;2023-04-03T07:02:17;97372.13;;;0.47
73894;BMP280;62699;50.534;12.784;2023-04-03T07:07:17;97377.56;;;1.58
73894;BMP280;62699;50.534;12.784;2023-04-03T07:12:18;97376.31;;;1.39
73894;BMP280;62699;50.534;12.784;2023-04-03T07:17:18;97392.66;;;1.07
73894;BMP280;62699;50.534;12.784;2023-04-03T07:22:18;97392.72;;;1.61
73894;BMP280;62699;50.534;12.784;2023-04-03T07:27:20;97395.03;;;1.55
73894;BMP280;62699;50.534;12.784;2023-04-03T07:32:20;97407.38;;;6.55
73894;BMP280;62699;50.534;12.784;2023-04-03T07:37:22;97406.72;;;5.23
73894;BMP280;62699;50.534;12.784;2023-04-03T07:42:22;97405.75;;;3.89
73894;BMP280;62699;50.534;12.784;2023-04-03T07:47:23;97410.53;;;2.73
73894;BMP280;62699;50.534;12.784;2023-04-03T07:52:25;97416.13;;;2.59
73894;BMP280;62699;50.534;12.784;2023-04-03T07:57:26;97421.31;;;4.51
73894;BMP280;62699;50.534;12.784;2023-04-03T08:02:26;97412.78;;;5.11
73894;BMP280;62699;50.534;12.784;2023-04-03T08:07:26;97423.09;;;6.53
73894;BMP280;62699;50.534;12.784;2023-04-03T08:12:27;97418.88;;;10.63
73894;BMP280;62699;50.534;12.784;2023-04-03T08:17:29;97427.34;;;9.88
73894;BMP280;62699;50.534;12.784;2023-04-03T08:22:31;97431.09;;;10.05
73894;BMP280;62699;50.534;12.784;2023-04-03T08:27:31;97429.38;;;7.12
73894;BMP280;62699;50.534;12.784;2023-04-03T08:32:33;97439.38;;;6.46
73894;BMP280;62699;50.534;12.784;2023-04-03T08:37:37;97440.22;;;4.57
73894;BMP280;62699;50.534;12.784;2023-04-03T08:43:09;97447.88;;;3.61
73894;BMP280;62699;50.534;12.784;2023-04-03T08:48:30;97444.50;;;3.05
73894;BMP280;62699;50.534;12.784;2023-04-03T08:53:34;97449.19;;;2.35
73894;BMP280;62699;50.534;12.784;2023-04-03T08:58:48;97457.09;;;2.38
73894;BMP280;62699;50.534;12.784;2023-04-03T09:03:49;97460.09;;;3.42
73894;BMP280;62699;50.534;12.784;2023-04-03T09:09:04;97450.84;;;4.44
73894;BMP280;62699;50.534;12.784;2023-04-03T09:14:28;97445.72;;;4.79
73894;BMP280;62699;50.534;12.784;2023-04-03T09:19:54;97454.94;;;4.33
73894;BMP280;62699;50.534;12.784;2023-04-03T09:25:15;97467.22;;;4.14
73894;BMP280;62699;50.534;12.784;2023-04-03T09:30:22;97452.69;;;4.89
73894;BMP280;62699;50.534;12.784;2023-04-03T09:35:31;97446.59;;;3.33
73894;BMP280;62699;50.534;12.784;2023-04-03T09:40:35;97449.81;;;4.09
73894;BMP280;62699;50.534;12.784;2023-04-03T09:45:35;97448.94;;;4.29
73894;BMP280;62699;50.534;12.784;2023-04-03T09:50:36;97456.94;;;4.29
73894;BMP280;62699;50.534;12.784;2023-04-03T09:55:42;97450.31;;;3.72
73894;BMP280;62699;50.534;12.784;2023-04-03T10:00:54;97452.09;;;3.59
73894;BMP280;62699;50.534;12.784;2023-04-03T10:05:54;97454.47;;;3.89
73894;BMP280;62699;50.534;12.784;2023-04-03T10:16:12;97446.41;;;4.54
73894;BMP280;62699;50.534;12.784;2023-04-03T10:21:29;97454.97;;;4.00
73894;BMP280;62699;50.534;12.784;2023-04-03T10:37:27;97443.94;;;4.59
73894;BMP280;62699;50.534;12.784;2023-04-03T10:42:46;97437.97;;;4.27
73894;BMP280;62699;50.534;12.784;2023-04-03T10:48:09;97439.78;;;3.97
73894;BMP280;62699;50.534;12.784;2023-04-03T10:53:31;97440.44;;;3.53
73894;BMP280;62699;50.534;12.784;2023-04-03T10:58:40;97432.31;;;3.43
73894;BMP280;62699;50.534;12.784;2023-04-03T11:04:04;97430.06;;;3.74
73894;BMP280;62699;50.534;12.784;2023-04-03T11:09:17;97425.59;;;4.61
73894;BMP280;62699;50.534;12.784;2023-04-03T11:14:35;97427.06;;;4.50
73894;BMP280;62699;50.534;12.784;2023-04-03T11:19:41;97408.88;;;4.32
73894;BMP280;62699;50.534;12.784;2023-04-03T11:24:43;97405.16;;;4.13
73894;BMP280;62699;50.534;12.784;2023-04-03T11:29:49;97404.19;;;4.65
73894;BMP280;62699;50.534;12.784;2023-04-03T11:34:52;97397.00;;;4.04
73894;BMP280;62699;50.534;12.784;2023-04-03T11:40:00;97385.56;;;4.90
73894;BMP280;62699;50.534;12.784;2023-04-03T11:45:52;97400.13;;;4.32
73894;BMP280;62699;50.534;12.784;2023-04-03T11:50:56;97388.94;;;3.07
73894;BMP280;62699;50.534;12.784;2023-04-03T11:55:58;97388.41;;;4.42
73894;BMP280;62699;50.534;12.784;2023-04-03T12:01:10;97377.84;;;4.92
73894;BMP280;62699;50.534;12.784;2023-04-03T12:11:24;97362.09;;;4.44
73894;BMP280;62699;50.534;12.784;2023-04-03T12:16:29;97388.06;;;4.27
73894;BMP280;62699;50.534;12.784;2023-04-03T12:26:44;97373.16;;;4.71
73894;BMP280;62699;50.534;12.784;2023-04-03T12:37:37;97354.66;;;3.94
73894;BMP280;62699;50.534;12.784;2023-04-03T12:48:15;97349.41;;;3.90
73894;BMP280;62699;50.534;12.784;2023-04-03T12:53:19;97364.97;;;3.92
73894;BMP280;62699;50.534;12.784;2023-04-03T12:58:23;97365.97;;;3.33
73894;BMP280;62699;50.534;12.784;2023-04-03T13:03:26;97350.84;;;3.62
73894;BMP280;62699;50.534;12.784;2023-04-03T13:08:29;97350.91;;;3.91
73894;BMP280;62699;50.534;12.784;2023-04-03T13:13:30;97345.38;;;4.14
73894;BMP280;62699;50.534;12.784;2023-04-03T13:18:33;97352.94;;;3.71
73894;BMP280;62699;50.534;12.784;2023-04-03T13:23:36;97352.75;;;3.62
73894;BMP280;62699;50.534;12.784;2023-04-03T13:28:39;97344.81;;;3.46
73894;BMP280;62699;50.534;12.784;2023-04-03T13:34:04;97355.25;;;3.20
73894;BMP280;62699;50.534;12.784;2023-04-03T13:54:38;97334.19;;;3.91
73894;BMP280;62699;50.534;12.784;2023-04-03T13:59:39;97332.38;;;3.71
73894;BMP280;62699;50.534;12.784;2023-04-03T14:09:40;97340.44;;;3.19
73894;BMP280;62699;50.534;12.784;2023-04-03T14:14:41;97332.69;;;3.25
73894;BMP280;62699;50.534;12.784;2023-04-03T14:19:41;97329.97;;;3.45
73894;BMP280;62699;50.534;12.784;2023-04-03T14:24:41;97330.13;;;3.21
73894;BMP280;62699;50.534;12.784;2023-04-03T14:29:46;97338.44;;;3.39
73894;BMP280;62699;50.534;12.784;2023-04-03T14:34:47;97325.22;;;3.20
73894;BMP280;62699;50.534;12.784;2023-04-03T14:39:55;97316.13;;;3.50
73894;BMP280;62699;50.534;12.784;2023-04-03T14:44:58;97309.16;;;3.23
73894;BMP280;62699;50.534;12.784;2023-04-03T14:50:00;97332.72;;;2.89
73894;BMP280;62699;50.534;12.784;2023-04-03T14:55:03;97319.47;;;3.05
73894;BMP280;62699;50.534;12.784;2023-04-03T15:00:07;97326.75;;;3.01
73894;BMP280;62699;50.534;12.784;2023-04-03T15:05:15;97310.56;;;3.12
73894;BMP280;62699;50.534;12.784;2023-04-03T15:10:27;97307.44;;;3.33
73894;BMP280;62699;50.534;12.784;2023-04-03T15:15:28;97313.63;;;3.26
73894;BMP280;62699;50.534;12.784;2023-04-03T15:20:29;97309.91;;;3.24
73894;BMP280;62699;50.534;12.784;2023-04-03T15:25:33;97316.50;;;3.35
73894;BMP280;62699;50.534;12.784;2023-04-03T15:30:36;97321.28;;;3.08
73894;BMP280;62699;50.534;12.784;2023-04-03T15:35:38;97333.66;;;2.62
73894;BMP280;62699;50.534;12.784;2023-04-03T15:40:38;97329.38;;;2.65
73894;BMP280;62699;50.534;12.784;2023-04-03T15:45:39;97331.06;;;2.59
73894;BMP280;62699;50.534;12.784;2023-04-03T15:50:40;97328.34;;;2.62
73894;BMP280;62699;50.534;12.784;2023-04-03T15:55:42;97323.25;;;2.68
73894;BMP280;62699;50.534;12.784;2023-04-03T16:00:43;97333.47;;;2.53
73894;BMP280;62699;50.534;12.784;2023-04-03T16:05:43;97323.97;;;2.52
73894;BMP280;62699;50.534;12.784;2023-04-03T16:10:44;97326.00;;;2.64
73894;BMP280;62699;50.534;12.784;2023-04-03T16:15:46;97330.56;;;2.44
73894;BMP280;62699;50.534;12.784;2023-04-03T16:20:46;97332.78;;;2.49
73894;BMP280;62699;50.534;12.784;2023-04-03T16:25:47;97324.06;;;2.29
73894;BMP280;62699;50.534;12.784;2023-04-03T16:30:49;97325.69;;;2.23
73894;BMP280;62699;50.534;12.784;2023-04-03T16:35:50;97331.69;;;2.27
73894;BMP280;62699;50.534;12.784;2023-04-03T16:40:51;97341.53;;;2.26
73894;BMP280;62699;50.534;12.784;2023-04-03T16:45:52;97334.28;;;2.07
73894;BMP280;62699;50.534;12.784;2023-04-03T16:50:52;97335.44;;;2.06
73894;BMP280;62699;50.534;12.784;2023-04-03T16:55:57;97338.19;;;2.03
73894;BMP280;62699;50.534;12.784;2023-04-03T17:01:12;97336.13;;;1.87
73894;BMP280;62699;50.534;12.784;2023-04-03T17:06:17;97340.69;;;1.86
73894;BMP280;62699;50.534;12.784;2023-04-03T17:11:18;97350.41;;;1.73
73894;BMP280;62699;50.534;12.784;2023-04-03T17:16:19;97335.97;;;1.74
73894;BMP280;62699;50.534;12.784;2023-04-03T17:21:20;97339.47;;;1.71
73894;BMP280;62699;50.534;12.784;2023-04-03T17:26:20;97347.19;;;1.62
73894;BMP280;62699;50.534;12.784;2023-04-03T17:31:23;97355.94;;;1.59
73894;BMP280;62699;50.534;12.784;2023-04-03T17:36:24;97358.28;;;1.54
73894;BMP280;62699;50.534;12.784;2023-04-03T17:41:25;97364.34;;;1.54
73894;BMP280;62699;50.534;12.784;2023-04-03T17:46:25;97361.41;;;1.48
73894;BMP280;62699;50.534;12.784;2023-04-03T17:51:26;97358.41;;;1.46
73894;BMP280;62699;50.534;12.784;2023-04-03T17:56:27;97367.56;;;1.42
73894;BMP280;62699;50.534;12.784;2023-04-03T18:01:32;97364.38;;;1.27
73894;BMP280;62699;50.534;12.784;2023-04-03T18:06:42;97363.97;;;1.29
73894;BMP280;62699;50.534;12.784;2023-04-03T18:11:45;97368.94;;;1.27
73894;BMP280;62699;50.534;12.784;2023-04-03T18:16:45;97371.22;;;1.25
73894;BMP280;62699;50.534;12.784;2023-04-03T18:21:48;97377.75;;;1.20
73894;BMP280;62699;50.534;12.784;2023-04-03T18:26:51;97373.53;;;1.23
73894;BMP280;62699;50.534;12.784;2023-04-03T18:31:54;97374.72;;;1.18
73894;BMP280;62699;50.534;12.784;2023-04-03T18:36:56;97381.22;;;1.13
73894;BMP280;62699;50.534;12.784;2023-04-03T18:41:59;97385.19;;;0.98
73894;BMP280;62699;50.534;12.784;2023-04-03T18:47:03;97386.44;;;0.90
73894;BMP280;62699;50.534;12.784;2023-04-03T18:52:03;97386.44;;;0.90
73894;BMP280;62699;50.534;12.784;2023-04-03T18:57:04;97398.97;;;0.86
73894;BMP280;62699;50.534;12.784;2023-04-03T19:02:05;97390.66;;;0.84
73894;BMP280;62699;50.534;12.784;2023-04-03T19:07:07;97386.50;;;0.83
73894;BMP280;62699;50.534;12.784;2023-04-03T19:12:08;97377.84;;;0.79
73894;BMP280;62699;50.534;12.784;2023-04-03T19:17:10;97386.19;;;0.78
73894;BMP280;62699;50.534;12.784;2023-04-03T19:22:11;97380.13;;;0.77
73894;BMP280;62699;50.534;12.784;2023-04-03T19:27:11;97383.53;;;0.78
73894;BMP280;62699;50.534;12.784;2023-04-03T19:32:11;97386.59;;;0.76
73894;BMP280;62699;50.534;12.784;2023-04-03T19:37:11;97380.91;;;0.74
73894;BMP280;62699;50.534;12.784;2023-04-03T19:42:14;97384.28;;;0.78
73894;BMP280;62699;50.534;12.784;2023-04-03T19:47:15;97387.38;;;0.73
73894;BMP280;62699;50.534;12.784;2023-04-03T19:52:17;97381.78;;;0.64
73894;BMP280;62699;50.534;12.784;2023-04-03T19:57:17;97382.16;;;0.66
73894;BMP280;62699;50.534;12.784;2023-04-03T20:02:19;97385.56;;;0.63
73894;BMP280;62699;50.534;12.784;2023-04-03T20:07:20;97388.69;;;0.58
73894;BMP280;62699;50.534;12.784;2023-04-03T20:12:21;97389.06;;;0.56
73894;BMP280;62699;50.534;12.784;2023-04-03T20:17:21;97384.53;;;0.53
73894;BMP280;62699;50.534;12.784;2023-04-03T20:22:21;97381.91;;;0.53
73894;BMP280;62699;50.534;12.784;2023-04-03T20:27:22;97386.50;;;0.49
73894;BMP280;62699;50.534;12.784;2023-04-03T20:32:22;97387.94;;;0.54
73894;BMP280;62699;50.534;12.784;2023-04-03T20:37:22;97381.13;;;0.53
73894;BMP280;62699;50.534;12.784;2023-04-03T20:42:23;97382.28;;;0.52
73894;BMP280;62699;50.534;12.784;2023-04-03T20:47:25;97381.13;;;0.53
73894;BMP280;62699;50.534;12.784;2023-04-03T20:52:27;97381.19;;;0.49
73894;BMP280;62699;50.534;12.784;2023-04-03T20:57:28;97372.91;;;0.44
73894;BMP280;62699;50.534;12.784;2023-04-03T21:02:30;97370.69;;;0.38
73894;BMP280;62699;50.534;12.784;2023-04-03T21:19:18;97363.63;;;0.28
73894;BMP280;62699;50.534;12.784;2023-04-03T21:24:19;97365.47;;;0.31
73894;BMP280;62699;50.534;12.784;2023-04-03T21:29:21;97350.41;;;0.28
73894;BMP280;62699;50.534;12.784;2023-04-03T21:34:21;97352.56;;;0.33
73894;BMP280;62699;50.534;12.784;2023-04-03T21:39:24;97355.63;;;0.32
73894;BMP280;62699;50.534;12.784;2023-04-03T21:44:27;97358.59;;;0.37
73894;BMP280;62699;50.534;12.784;2023-04-03T21:49:27;97352.53;;;0.41
73894;BMP280;62699;50.534;12.784;2023-04-03T21:54:28;97351.34;;;0.42
73894;BMP280;62699;50.534;12.784;2023-04-03T21:59:28;97349.91;;;0.37
73894;BMP280;62699;50.534;12.784;2023-04-03T22:04:29;97354.75;;;0.42
73894;BMP280;62699;50.534;12.784;2023-04-03T22:09:29;97354.34;;;0.47
73894;BMP280;62699;50.534;12.784;2023-04-03T22:14:30;97351.31;;;0.49
73894;BMP280;62699;50.534;12.784;2023-04-03T22:19:30;97350.19;;;0.46
73894;BMP280;62699;50.534;12.784;2023-04-03T22:24:30;97341.94;;;0.41
73894;BMP280;62699;50.534;12.784;2023-04-03T22:29:31;97342.72;;;0.34
73894;BMP280;62699;50.534;12.784;2023-04-03T22:34:32;97341.31;;;0.29
73894;BMP280;62699;50.534;12.784;2023-04-03T22:39:33;97338.38;;;0.20
73894;BMP280;62699;50.534;12.784;2023-04-03T22:44:34;97336.91;;;0.12
73894;BMP280;62699;50.534;12.784;2023-04-03T22:49:34;97334.31;;;0.09
73894;BMP280;62699;50.534;12.784;2023-04-03T22:54:34;97331.66;;;0.09
73894;BMP280;62699;50.534;12.784;2023-04-03T22:59:34;97329.34;;;0.14
73894;BMP280;62699;50.534;12.784;2023-04-03T23:04:35;97322.53;;;0.13
73894;BMP280;62699;50.534;12.784;2023-04-03T23:09:36;97317.31;;;0.06
73894;BMP280;62699;50.534;12.784;2023-04-03T23:14:38;97308.25;;;0.04
73894;BMP280;62699;50.534;12.784;2023-04-03T23:19:38;97316.66;;;-0.05
73894;BMP280;62699;50.534;12.784;2023-04-03T23:24:40;97312.56;;;-0.13
73894;BMP280;62699;50.534;12.784;2023-04-03T23:29:40;97318.25;;;-0.15
73894;BMP280;62699;50.534;12.784;2023-04-03T23:34:43;97311.06;;;-0.14
73894;BMP280;62699;50.534;12.784;2023-04-03T23:39:44;97311.47;;;-0.19
73894;BMP280;62699;50.534;12.784;2023-04-03T23:44:44;97307.69;;;-0.18
73894;BMP280;62699;50.534;12.784;2023-04-03T23:49:44;97307.31;;;-0.17
73894;BMP280;62699;50.534;12.784;2023-04-03T23:54:45;97300.47;;;-0.14
73894;BMP280;62699;50.534;12.784;2023-04-03T23:59:46;97300.09;;;-0.13
